createdAt,value
2022-09-20T00:01:24.935Z,87.42
2022-09-20T00:03:55.119Z,86.66
2022-09-20T00:06:24.065Z,86.62
2022-09-20T00:08:51.885Z,86.56
2022-09-20T00:11:24.178Z,86.70
2022-09-20T00:13:54.965Z,87.61
2022-09-20T00:16:26.512Z,87.74
2022-09-20T00:18:58.466Z,87.42
2022-09-20T00:21:29.860Z,87.72
2022-09-20T00:23:58.304Z,87.09
2022-09-20T00:26:27.480Z,85.90
2022-09-20T00:28:55.820Z,86.25
2022-09-20T00:31:23.497Z,86.11
2022-09-20T00:34:13.238Z,85.98
2022-09-20T00:36:40.901Z,86.27
2022-09-20T00:39:11.872Z,86.41
2022-09-20T00:41:39.036Z,86.69
2022-09-20T00:45:00.451Z,86.88
2022-09-20T00:47:48.190Z,87.22
2022-09-20T00:50:15.070Z,87.38
2022-09-20T00:52:45.767Z,87.57
2022-09-20T00:55:14.192Z,87.78
2022-09-20T00:57:44.678Z,87.43
2022-09-20T01:00:11.971Z,87.21
2022-09-20T01:02:51.246Z,87.52
2022-09-20T01:05:19.576Z,87.82
2022-09-20T01:07:48.839Z,88.73
2022-09-20T01:10:16.113Z,88.01
2022-09-20T01:12:46.204Z,88.50
2022-09-20T01:15:15.697Z,87.47
2022-09-20T01:17:48.364Z,87.55
2022-09-20T01:20:29.396Z,87.19
2022-09-20T01:23:16.735Z,88.23
2022-09-20T01:25:56.199Z,87.63
2022-09-20T01:28:24.415Z,87.52
2022-09-20T01:31:07.113Z,87.57
2022-09-20T01:33:49.906Z,87.59
2022-09-20T01:36:25.034Z,87.77
2022-09-20T01:39:30.194Z,88.25
2022-09-20T01:42:00.069Z,88.17
2022-09-20T01:44:30.068Z,87.98
2022-09-20T01:47:04.157Z,87.81
2022-09-20T01:49:34.332Z,87.36
2022-09-20T01:52:26.393Z,87.15
2022-09-20T01:55:16.802Z,86.82
2022-09-20T01:57:53.557Z,86.71
2022-09-20T02:00:35.151Z,87.26
2022-09-20T02:03:33.425Z,87.49
2022-09-20T02:06:23.561Z,86.79
2022-09-20T02:09:07.956Z,86.74
2022-09-20T02:11:38.443Z,87.19
2022-09-20T02:14:14.778Z,87.02
2022-09-20T02:16:41.779Z,87.88
2022-09-20T02:19:27.154Z,87.51
2022-09-20T02:22:18.682Z,86.98
2022-09-20T02:25:07.543Z,87.17
2022-09-20T02:28:17.077Z,86.91
2022-09-20T02:31:02.398Z,87.00
2022-09-20T02:33:58.356Z,87.09
2022-09-20T02:36:37.963Z,87.37
2022-09-20T02:39:23.274Z,87.65
2022-09-20T02:41:55.921Z,86.62
2022-09-20T02:44:48.551Z,86.91
2022-09-20T02:47:39.020Z,86.51
2022-09-20T02:50:06.290Z,86.17
2022-09-20T02:52:38.250Z,86.66
2022-09-20T02:55:16.497Z,86.36
2022-09-20T02:58:15.297Z,86.81
2022-09-20T03:01:01.519Z,87.05
2022-09-20T03:03:47.391Z,86.37
2022-09-20T03:06:32.444Z,86.39
2022-09-20T03:09:17.422Z,86.92
2022-09-20T03:11:53.232Z,86.24
2022-09-20T03:14:34.451Z,86.82
2022-09-20T03:17:42.584Z,86.53
2022-09-20T03:20:48.753Z,85.95
2022-09-20T03:23:48.179Z,85.99
2022-09-20T03:26:33.852Z,86.13
2022-09-20T03:29:28.264Z,86.41
2022-09-20T03:31:58.321Z,86.40
2022-09-20T03:34:34.494Z,86.74
2022-09-20T03:37:24.920Z,86.42
2022-09-20T03:40:10.575Z,86.93
2022-09-20T03:42:47.557Z,86.85
2022-09-20T03:45:53.424Z,87.11
2022-09-20T03:48:34.288Z,87.16
2022-09-20T03:51:23.802Z,85.92
2022-09-20T03:54:00.024Z,85.90
2022-09-20T03:56:51.791Z,86.24
2022-09-20T03:59:31.035Z,86.24
2022-09-20T04:02:23.107Z,86.55
2022-09-20T04:04:58.389Z,86.27
2022-09-20T04:07:38.446Z,86.04
2022-09-20T04:10:34.155Z,85.39
2022-09-20T04:13:25.023Z,85.35
2022-09-20T04:16:20.307Z,85.13
2022-09-20T04:19:04.663Z,85.73
2022-09-20T04:21:53.383Z,85.78
2022-09-20T04:24:33.482Z,85.29
2022-09-20T04:27:09.593Z,84.38
2022-09-20T04:30:01.798Z,84.41
2022-09-20T04:32:47.422Z,84.66
2022-09-20T04:36:10.233Z,84.57
2022-09-20T04:38:37.695Z,84.04
2022-09-20T04:41:31.996Z,83.60
2022-09-20T04:44:25.101Z,83.41
2022-09-20T04:47:36.339Z,83.82
2022-09-20T04:50:18.714Z,83.99
2022-09-20T04:53:10.834Z,83.71
2022-09-20T04:55:46.081Z,82.87
2022-09-20T04:58:51.416Z,82.05
2022-09-20T05:01:47.016Z,82.30
2022-09-20T05:04:34.168Z,82.60
2022-09-20T05:07:26.886Z,81.95
2022-09-20T05:10:24.720Z,82.53
2022-09-20T05:12:52.429Z,82.19
2022-09-20T05:15:36.608Z,82.31
2022-09-20T05:18:06.922Z,82.25
2022-09-20T05:20:46.166Z,82.16
2022-09-20T05:23:26.818Z,82.50
2022-09-20T05:26:09.530Z,83.20
2022-09-20T05:28:42.330Z,83.19
2022-09-20T05:32:01.323Z,84.35
2022-09-20T05:35:04.126Z,84.67
2022-09-20T05:37:43.813Z,84.15
2022-09-20T05:40:29.342Z,83.45
2022-09-20T05:43:11.587Z,83.21
2022-09-20T05:45:48.646Z,82.19
2022-09-20T05:48:33.286Z,82.45
2022-09-20T05:51:23.084Z,82.60
2022-09-20T05:54:28.345Z,81.86
2022-09-20T05:56:55.295Z,81.60
2022-09-20T05:59:44.007Z,80.98
2022-09-20T06:02:49.235Z,80.73
2022-09-20T06:05:34.899Z,80.66
2022-09-20T06:08:35.631Z,81.01
2022-09-20T06:11:40.718Z,80.61
2022-09-20T06:14:27.897Z,80.99
2022-09-20T06:17:11.856Z,79.93
2022-09-20T06:20:03.708Z,79.42
2022-09-20T06:22:40.464Z,79.63
2022-09-20T06:25:07.425Z,78.28
2022-09-20T06:27:59.254Z,78.57
2022-09-20T06:30:33.493Z,78.23
2022-09-20T06:33:13.506Z,78.12
2022-09-20T06:35:43.646Z,77.95
2022-09-20T06:38:48.384Z,77.87
2022-09-20T06:41:28.489Z,77.10
2022-09-20T06:43:58.870Z,77.20
2022-09-20T06:46:28.979Z,76.87
2022-09-20T06:48:57.897Z,76.40
2022-09-20T06:51:27.370Z,75.09
2022-09-20T06:53:57.605Z,72.60
2022-09-20T06:56:29.947Z,70.99
2022-09-20T06:58:57.630Z,69.97
2022-09-20T07:01:30.219Z,68.59
2022-09-20T07:03:59.324Z,66.56
2022-09-20T07:06:29.397Z,65.93
2022-09-20T07:08:56.369Z,66.62
2022-09-20T07:11:23.555Z,66.44
2022-09-20T07:13:52.654Z,67.49
2022-09-20T07:16:21.765Z,66.90
2022-09-20T07:18:52.676Z,66.92
2022-09-20T07:21:21.618Z,67.51
2022-09-20T07:23:50.193Z,67.88
2022-09-20T07:26:27.975Z,68.19
2022-09-20T07:28:56.035Z,68.86
2022-09-20T07:31:27.960Z,69.58
2022-09-20T07:33:55.580Z,70.23
2022-09-20T07:36:22.838Z,69.79
2022-09-20T07:38:51.797Z,70.31
2022-09-20T07:41:20.079Z,70.23
2022-09-20T07:43:47.343Z,69.53
2022-09-20T07:46:14.495Z,69.35
2022-09-20T07:48:42.823Z,69.11
2022-09-20T07:51:13.069Z,67.92
2022-09-20T07:53:41.090Z,68.57
2022-09-20T07:56:12.508Z,68.77
2022-09-20T07:58:40.010Z,68.95
2022-09-20T08:01:10.570Z,69.18
2022-09-20T08:03:38.452Z,69.50
2022-09-20T08:06:16.484Z,67.49
2022-09-20T08:08:44.103Z,68.05
2022-09-20T08:11:12.889Z,68.58
2022-09-20T08:16:32.107Z,67.25
2022-09-20T08:19:02.940Z,65.42
2022-09-20T08:21:42.381Z,65.69
2022-09-20T08:24:15.300Z,65.04
2022-09-20T08:26:43.754Z,64.13
2022-09-20T08:29:11.901Z,63.03
2022-09-20T08:31:42.375Z,63.36
2022-09-20T08:34:13.030Z,60.83
2022-09-20T08:36:42.025Z,59.93
2022-09-20T08:42:33.049Z,63.23
2022-09-20T08:45:07.961Z,64.27
2022-09-20T08:47:40.163Z,63.36
2022-09-20T08:50:17.049Z,61.77
2022-09-20T08:52:49.420Z,60.05
2022-09-20T08:55:41.763Z,57.84
2022-09-20T08:58:12.657Z,57.25
2022-09-20T09:00:41.085Z,58.32
2022-09-20T09:03:14.464Z,59.31
2022-09-20T09:05:46.793Z,58.62
2022-09-20T09:08:17.666Z,60.78
2022-09-20T09:11:02.301Z,59.65
2022-09-20T09:13:40.755Z,59.84
2022-09-20T09:16:23.108Z,60.82
2022-09-20T09:18:52.382Z,61.75
2022-09-20T09:21:25.953Z,60.10
2022-09-20T09:24:01.976Z,57.65
2022-09-20T09:26:36.559Z,56.89
2022-09-20T09:29:24.211Z,54.27
2022-09-20T09:31:54.623Z,53.99
2022-09-20T09:34:26.258Z,53.66
2022-09-20T09:36:55.542Z,53.62
2022-09-20T09:39:29.376Z,53.35
2022-09-20T09:42:01.267Z,54.18
2022-09-20T09:44:35.664Z,52.84
2022-09-20T09:47:31.343Z,53.24
2022-09-20T09:50:02.880Z,54.98
2022-09-20T09:52:35.529Z,54.01
2022-09-20T09:55:05.662Z,52.43
2022-09-20T09:57:45.841Z,49.91
2022-09-20T10:00:22.059Z,51.49
2022-09-20T10:03:14.782Z,53.12
2022-09-20T10:06:01.056Z,53.65
2022-09-20T10:09:00.147Z,54.91
2022-09-20T10:11:58.703Z,54.86
2022-09-20T10:15:01.168Z,56.51
2022-09-20T10:17:56.433Z,57.21
2022-09-20T10:21:07.901Z,54.59
2022-09-20T10:24:03.154Z,54.05
2022-09-20T10:27:06.088Z,53.71
2022-09-20T10:29:58.327Z,51.63
2022-09-20T10:32:33.295Z,50.59
2022-09-20T10:35:31.196Z,49.25
2022-09-20T10:38:23.761Z,50.62
2022-09-20T10:41:24.495Z,51.19
2022-09-20T10:44:32.521Z,53.22
2022-09-20T10:46:59.640Z,51.75
2022-09-20T10:49:28.332Z,49.86
2022-09-20T10:52:23.507Z,49.22
2022-09-20T10:55:09.202Z,50.50
2022-09-20T10:58:01.601Z,53.85
2022-09-20T11:01:08.233Z,53.64
2022-09-20T11:03:50.371Z,53.32
2022-09-20T11:06:42.205Z,55.00
2022-09-20T11:09:14.323Z,54.90
2022-09-20T11:11:59.146Z,56.77
2022-09-20T11:14:35.518Z,58.48
2022-09-20T11:17:15.957Z,58.24
2022-09-20T11:19:48.591Z,55.75
2022-09-20T11:22:29.363Z,56.10
2022-09-20T11:25:24.003Z,59.00
2022-09-20T11:28:49.143Z,61.61
2022-09-20T11:31:31.288Z,64.14
2022-09-20T11:34:26.109Z,64.55
2022-09-20T11:36:59.079Z,65.88
2022-09-20T11:39:38.926Z,66.83
2022-09-20T11:42:07.299Z,66.99
2022-09-20T11:44:40.205Z,66.58
2022-09-20T11:47:53.433Z,66.76
2022-09-20T11:50:43.496Z,66.55
2022-09-20T11:53:36.971Z,66.36
2022-09-20T11:56:23.996Z,67.36
2022-09-20T11:58:53.761Z,67.70
2022-09-20T12:01:28.549Z,67.50
2022-09-20T12:04:30.815Z,68.09
2022-09-20T12:07:05.902Z,67.14
2022-09-20T12:09:40.963Z,68.07
2022-09-20T12:12:34.712Z,68.24
2022-09-20T12:15:32.310Z,67.89
2022-09-20T12:18:00.220Z,67.83
2022-09-20T12:20:38.812Z,67.89
2022-09-20T12:23:43.069Z,68.05
2022-09-20T12:26:34.944Z,67.10
2022-09-20T12:29:25.759Z,66.41
2022-09-20T12:32:02.270Z,65.86
2022-09-20T12:34:39.500Z,65.96
2022-09-20T12:37:12.605Z,65.62
2022-09-20T12:39:49.862Z,65.53
2022-09-20T12:42:25.113Z,64.08
2022-09-20T12:45:15.773Z,59.99
2022-09-20T12:47:54.712Z,57.04
2022-09-20T12:50:43.378Z,54.88
2022-09-20T12:53:20.856Z,53.20
2022-09-20T12:56:08.099Z,51.69
2022-09-20T12:58:52.371Z,52.43
2022-09-20T13:01:19.618Z,51.58
2022-09-20T13:03:50.587Z,51.79
2022-09-20T13:06:19.330Z,50.82
2022-09-20T13:08:55.581Z,49.71
2022-09-20T13:11:46.332Z,49.30
2022-09-20T13:14:28.996Z,47.83
2022-09-20T13:17:29.296Z,46.40
2022-09-20T13:19:58.426Z,46.66
2022-09-20T13:22:33.590Z,47.23
2022-09-20T13:25:06.136Z,47.14
2022-09-20T13:27:47.047Z,49.95
2022-09-20T13:30:23.793Z,52.61
2022-09-20T13:32:51.847Z,55.86
2022-09-20T13:35:21.763Z,57.71
2022-09-20T13:38:06.594Z,58.36
2022-09-20T13:40:55.993Z,59.21
2022-09-20T13:43:34.261Z,59.59
2022-09-20T13:46:18.066Z,60.48
2022-09-20T13:48:55.970Z,60.78
2022-09-20T13:51:28.895Z,61.17
2022-09-20T13:54:19.161Z,61.95
2022-09-20T13:56:47.462Z,60.78
2022-09-20T13:59:19.331Z,58.54
2022-09-20T14:01:53.569Z,58.49
2022-09-20T14:04:23.734Z,59.26
2022-09-20T14:06:53.916Z,59.94
2022-09-20T14:09:31.090Z,60.56
2022-09-20T14:12:00.057Z,60.34
2022-09-20T14:14:29.302Z,59.46
2022-09-20T14:16:58.456Z,59.16
2022-09-20T14:19:41.312Z,57.66
2022-09-20T14:22:14.690Z,57.06
2022-09-20T14:24:41.962Z,57.46
2022-09-20T14:27:21.556Z,57.90
2022-09-20T14:29:53.694Z,58.63
2022-09-20T14:32:20.821Z,58.51
2022-09-20T14:34:56.820Z,59.31
2022-09-20T14:37:27.948Z,58.85
2022-09-20T14:40:16.798Z,59.10
2022-09-20T14:42:47.300Z,59.74
2022-09-20T14:45:29.602Z,60.54
2022-09-20T14:48:11.934Z,60.29
2022-09-20T14:50:45.242Z,60.00
2022-09-20T14:53:15.110Z,60.75
2022-09-20T14:56:05.048Z,60.49
2022-09-20T14:58:33.264Z,61.22
2022-09-20T15:01:41.348Z,63.13
2022-09-20T15:04:17.297Z,64.14
2022-09-20T15:06:45.300Z,64.91
2022-09-20T15:09:13.500Z,65.85
2022-09-20T15:11:41.158Z,66.00
2022-09-20T15:14:09.254Z,67.23
2022-09-20T15:16:37.064Z,67.08
2022-09-20T15:19:06.291Z,67.50
2022-09-20T15:21:33.440Z,68.95
2022-09-20T15:24:00.668Z,69.45
2022-09-20T15:26:27.788Z,69.45
2022-09-20T15:28:54.798Z,70.29
2022-09-20T15:31:21.840Z,70.69
2022-09-20T15:33:48.920Z,72.14
2022-09-20T15:36:15.928Z,72.31
2022-09-20T15:38:43.664Z,72.68
2022-09-20T15:41:10.738Z,73.00
2022-09-20T15:43:40.010Z,73.46
2022-09-20T15:46:24.649Z,74.17
2022-09-20T15:48:51.572Z,73.94
2022-09-20T15:51:18.487Z,74.45
2022-09-20T15:53:53.957Z,75.15
2022-09-20T15:56:28.415Z,74.74
2022-09-20T15:59:01.387Z,75.91
2022-09-20T16:01:32.621Z,76.19
2022-09-20T16:04:00.234Z,76.06
2022-09-20T16:06:27.623Z,76.94
2022-09-20T16:08:55.778Z,76.46
2022-09-20T16:11:26.524Z,77.66
2022-09-20T16:13:57.920Z,78.41
2022-09-20T16:16:28.252Z,77.95
2022-09-20T16:19:15.005Z,78.03
2022-09-20T16:21:44.269Z,78.78
2022-09-20T16:24:14.655Z,78.95
2022-09-20T16:26:42.566Z,78.66
2022-09-20T16:29:14.876Z,79.73
2022-09-20T16:31:50.285Z,79.02
2022-09-20T16:34:22.286Z,79.37
2022-09-20T16:36:56.460Z,79.51
2022-09-20T16:39:27.933Z,78.99
2022-09-20T16:42:03.748Z,78.81
2022-09-20T16:44:35.911Z,78.82
2022-09-20T16:47:10.623Z,79.79
2022-09-20T16:49:38.674Z,79.88
2022-09-20T16:52:07.562Z,79.71
2022-09-20T16:54:35.799Z,80.13
2022-09-20T16:57:03.551Z,80.45
2022-09-20T16:59:31.779Z,80.78
2022-09-20T17:01:59.858Z,80.66
2022-09-20T17:04:27.022Z,81.39
2022-09-20T17:06:54.867Z,81.15
2022-09-20T17:12:35.020Z,81.46
2022-09-20T17:15:02.632Z,81.68
2022-09-20T17:17:30.614Z,82.08
2022-09-20T17:19:57.671Z,82.15
2022-09-20T17:22:25.251Z,82.60
2022-09-20T17:24:52.244Z,82.70
2022-09-20T17:27:19.379Z,82.95
2022-09-20T17:29:47.971Z,83.09
2022-09-20T17:32:15.288Z,82.99
2022-09-20T17:34:42.751Z,83.95
2022-09-20T17:37:10.194Z,84.19
2022-09-20T17:39:38.048Z,84.33
2022-09-20T17:42:05.472Z,84.08
2022-09-20T17:44:38.082Z,84.16
2022-09-20T17:47:06.333Z,84.75
2022-09-20T17:49:34.709Z,84.41
2022-09-20T17:52:02.101Z,84.50
2022-09-20T17:54:30.098Z,84.50
2022-09-20T17:57:02.093Z,85.26
2022-09-20T17:59:35.695Z,85.56
2022-09-20T18:02:04.476Z,85.57
2022-09-20T18:04:31.614Z,85.58
2022-09-20T18:06:59.037Z,85.91
2022-09-20T18:09:31.213Z,86.32
2022-09-20T18:11:59.022Z,86.32
2022-09-20T18:14:28.590Z,86.62
2022-09-20T18:16:58.411Z,86.89
2022-09-20T18:19:32.564Z,87.08
2022-09-20T18:22:04.406Z,87.46
2022-09-20T18:24:31.811Z,87.67
2022-09-20T18:27:01.045Z,87.55
2022-09-20T18:29:29.661Z,87.51
2022-09-20T18:31:58.050Z,88.27
2022-09-20T18:34:31.475Z,87.92
2022-09-20T18:37:01.427Z,88.29
2022-09-20T18:39:32.881Z,88.43
2022-09-20T18:42:01.368Z,88.69
2022-09-20T18:44:30.580Z,89.04
2022-09-20T18:46:58.821Z,88.76
2022-09-20T18:49:26.418Z,89.26
2022-09-20T18:51:54.053Z,89.30
2022-09-20T18:54:21.143Z,89.30
2022-09-20T18:56:50.649Z,89.62
2022-09-20T18:59:23.041Z,89.76
2022-09-20T19:01:56.411Z,89.64
2022-09-20T19:09:00.906Z,89.92
2022-09-20T19:19:51.698Z,91.26
2022-09-20T19:22:52.532Z,91.80
2022-09-20T19:25:21.839Z,91.55
2022-09-20T19:27:51.988Z,91.63
2022-09-20T19:30:26.013Z,91.83
2022-09-20T19:33:01.792Z,92.66
2022-09-20T19:35:36.820Z,92.69
2022-09-20T19:38:16.178Z,93.23
2022-09-20T19:41:08.907Z,93.43
2022-09-20T19:43:54.974Z,93.61
2022-09-20T19:47:01.564Z,94.58
2022-09-20T19:50:04.868Z,94.35
2022-09-20T19:52:32.633Z,94.47
2022-09-20T19:55:00.998Z,94.68
2022-09-20T19:57:37.768Z,94.72
2022-09-20T20:00:09.550Z,94.57
2022-09-20T20:02:48.913Z,94.59
2022-09-20T20:05:32.278Z,94.70
2022-09-20T20:08:49.931Z,94.75
2022-09-20T20:15:10.554Z,95.47
2022-09-20T20:18:19.406Z,95.43
2022-09-20T20:20:55.432Z,95.40
2022-09-20T20:24:11.892Z,95.38
2022-09-20T20:26:44.995Z,95.29
2022-09-20T20:29:17.937Z,95.75
2022-09-20T20:31:47.314Z,95.81
2022-09-20T20:34:16.715Z,95.48
2022-09-20T20:36:44.436Z,95.96
2022-09-20T20:39:12.081Z,95.72
2022-09-20T20:41:39.547Z,96.01
2022-09-20T20:44:07.195Z,95.71
2022-09-20T20:46:38.275Z,95.80
2022-09-20T20:49:06.330Z,96.04
2022-09-20T20:51:34.521Z,96.31
2022-09-20T20:54:03.461Z,96.10
2022-09-20T20:56:31.614Z,96.57
2022-09-20T20:59:01.038Z,96.43
2022-09-20T21:01:31.131Z,96.69
2022-09-20T21:03:59.460Z,96.39
2022-09-20T21:06:29.931Z,97.42
2022-09-20T21:08:57.207Z,97.53
2022-09-20T21:11:27.545Z,97.31
2022-09-20T21:13:55.514Z,97.63
2022-09-20T21:16:25.001Z,97.46
2022-09-20T21:18:52.030Z,97.20
2022-09-20T21:21:31.533Z,96.98
2022-09-20T21:24:01.479Z,96.79
2022-09-20T21:26:32.264Z,96.60
2022-09-20T21:29:02.535Z,96.59
2022-09-20T21:31:31.343Z,96.44
2022-09-20T21:33:59.175Z,96.55
2022-09-20T21:36:30.570Z,96.33
2022-09-20T21:38:57.545Z,96.11
2022-09-20T21:41:32.275Z,95.80
2022-09-20T21:44:02.333Z,96.03
2022-09-20T21:46:40.396Z,95.89
2022-09-20T21:49:09.634Z,96.52
2022-09-20T21:51:38.850Z,96.81
2022-09-20T21:54:06.499Z,96.30
2022-09-20T21:56:36.338Z,95.92
2022-09-20T21:59:04.650Z,95.54
2022-09-20T22:01:35.046Z,95.33
2022-09-20T22:04:08.697Z,94.59
2022-09-20T22:06:38.597Z,94.65
2022-09-20T22:09:11.781Z,94.53
2022-09-20T22:11:45.536Z,95.06
2022-09-20T22:14:14.234Z,94.57
2022-09-20T22:16:43.554Z,94.74
2022-09-20T22:19:13.687Z,94.56
2022-09-20T22:21:43.842Z,94.70
2022-09-20T22:24:13.450Z,94.78
2022-09-20T22:26:43.394Z,94.72
2022-09-20T22:29:11.074Z,95.49
2022-09-20T22:31:47.505Z,95.56
2022-09-20T22:34:17.943Z,95.60
2022-09-20T22:36:46.516Z,95.89
2022-09-20T22:39:15.309Z,95.96
2022-09-20T22:41:43.258Z,96.04
2022-09-20T22:44:11.066Z,96.48
2022-09-20T22:46:38.787Z,96.06
2022-09-20T22:49:07.511Z,95.97
2022-09-20T22:51:35.018Z,95.65
2022-09-20T22:54:07.447Z,95.71
2022-09-20T22:56:36.434Z,95.74
2022-09-20T22:59:12.084Z,95.69
2022-09-20T23:01:42.445Z,95.61
2022-09-20T23:04:10.993Z,95.23
2022-09-20T23:06:52.004Z,95.75
2022-09-20T23:09:19.226Z,96.11
2022-09-20T23:11:46.549Z,96.20
2022-09-20T23:14:16.303Z,96.45
2022-09-20T23:16:44.521Z,96.11
2022-09-20T23:19:12.160Z,96.32
2022-09-20T23:21:43.300Z,96.65
2022-09-20T23:24:12.433Z,97.11
2022-09-20T23:26:41.803Z,97.50
2022-09-20T23:29:16.646Z,97.02
2022-09-20T23:31:46.842Z,96.03
2022-09-20T23:34:14.732Z,95.43
2022-09-20T23:36:42.612Z,95.09
2022-09-20T23:39:11.825Z,94.11
2022-09-20T23:41:39.603Z,94.14
2022-09-20T23:44:10.017Z,94.06
2022-09-20T23:46:37.622Z,93.65
2022-09-20T23:49:06.947Z,94.03
2022-09-20T23:51:35.641Z,93.67
2022-09-20T23:54:03.369Z,93.47
2022-09-20T23:56:31.281Z,93.47
2022-09-20T23:58:58.289Z,93.44
